createdAt,value
2019-02-21T00:01:40.595Z,25.53
2019-02-21T00:04:08.002Z,26.13
2019-02-21T00:06:36.319Z,22.50
2019-02-21T00:09:05.313Z,25.03
2019-02-21T00:11:32.967Z,22.30
2019-02-21T00:14:00.645Z,27.17
2019-02-21T00:16:28.005Z,23.70
2019-02-21T00:18:55.644Z,24.70
2019-02-21T00:21:23.609Z,24.23
2019-02-21T00:23:50.975Z,24.70
2019-02-21T00:26:18.844Z,23.57
2019-02-21T00:28:46.654Z,25.70
2019-02-21T00:31:14.361Z,24.93
2019-02-21T00:33:42.847Z,21.80
2019-02-21T00:36:10.150Z,24.63
2019-02-21T00:38:38.310Z,25.40
2019-02-21T00:41:06.130Z,23.33
2019-02-21T00:43:33.807Z,23.17
2019-02-21T00:46:02.062Z,25.87
2019-02-21T00:48:29.817Z,24.43
2019-02-21T00:50:57.432Z,24.33
2019-02-21T00:53:25.073Z,24.43
2019-02-21T00:55:52.900Z,25.80
2019-02-21T00:58:20.840Z,25.77
2019-02-21T01:00:48.221Z,23.83
2019-02-21T01:03:16.650Z,21.70
2019-02-21T01:05:44.001Z,23.00
2019-02-21T01:08:11.315Z,21.73
2019-02-21T01:10:38.692Z,22.33
2019-02-21T01:13:06.418Z,27.37
2019-02-21T01:15:33.963Z,25.23
2019-02-21T01:18:01.296Z,24.67
2019-02-21T01:20:29.767Z,24.47
2019-02-21T01:22:57.533Z,24.87
2019-02-21T01:25:24.942Z,26.90
2019-02-21T01:27:52.254Z,24.97
2019-02-21T01:30:20.401Z,25.13
2019-02-21T01:32:47.759Z,22.47
2019-02-21T01:35:15.191Z,25.33
2019-02-21T01:37:42.963Z,24.13
2019-02-21T01:40:10.670Z,28.73
2019-02-21T01:42:37.992Z,28.10
2019-02-21T01:45:05.959Z,25.43
2019-02-21T01:47:34.449Z,24.87
2019-02-21T01:50:03.433Z,26.13
2019-02-21T01:52:31.211Z,22.80
2019-02-21T01:54:58.853Z,23.20
2019-02-21T01:57:26.329Z,24.53
2019-02-21T01:59:53.683Z,23.13
2019-02-21T02:02:21.548Z,22.67
2019-02-21T02:04:49.315Z,23.70
2019-02-21T02:07:16.650Z,22.47
2019-02-21T02:09:45.051Z,23.43
2019-02-21T02:12:12.670Z,24.67
2019-02-21T02:14:40.059Z,21.87
2019-02-21T02:17:08.034Z,26.00
2019-02-21T02:19:35.376Z,24.27
2019-02-21T02:22:02.728Z,26.93
2019-02-21T02:24:30.346Z,24.17
2019-02-21T02:26:57.944Z,21.93
2019-02-21T02:29:26.107Z,22.27
2019-02-21T02:31:53.462Z,21.70
2019-02-21T02:34:21.144Z,23.43
2019-02-21T02:36:48.544Z,22.50
2019-02-21T02:39:16.170Z,23.03
2019-02-21T02:41:43.799Z,24.40
2019-02-21T02:44:11.937Z,21.93
2019-02-21T02:46:39.469Z,23.03
2019-02-21T02:49:07.898Z,21.80
2019-02-21T02:51:35.277Z,20.73
2019-02-21T02:54:02.913Z,25.47
2019-02-21T02:56:30.280Z,20.87
2019-02-21T02:58:58.773Z,22.03
2019-02-21T03:01:34.664Z,21.07
2019-02-21T03:03:55.815Z,23.57
2019-02-21T03:06:23.234Z,22.03
2019-02-21T03:08:50.684Z,22.67
2019-02-21T03:16:42.605Z,22.53
2019-02-21T03:19:10.606Z,19.13
2019-02-21T03:21:38.039Z,24.20
2019-02-21T03:24:05.356Z,19.90
2019-02-21T03:26:32.711Z,25.27
2019-02-21T03:29:00.012Z,30.10
2019-02-21T03:31:27.698Z,25.97
2019-02-21T03:33:55.747Z,24.03
2019-02-21T03:36:23.049Z,23.93
2019-02-21T03:38:50.689Z,26.17
2019-02-21T03:41:18.078Z,21.27
2019-02-21T03:43:45.387Z,23.90
2019-02-21T03:46:13.072Z,23.17
2019-02-21T03:48:40.645Z,21.37
2019-02-21T03:51:07.984Z,22.47
2019-02-21T03:53:35.303Z,22.87
2019-02-21T03:56:02.691Z,24.37
2019-02-21T03:58:30.622Z,24.53
2019-02-21T04:00:58.278Z,20.07
2019-02-21T04:03:25.805Z,26.50
2019-02-21T04:05:53.499Z,20.30
2019-02-21T04:08:20.884Z,24.33
2019-02-21T04:10:48.931Z,22.43
2019-02-21T04:13:16.208Z,23.30
2019-02-21T04:15:43.521Z,20.70
2019-02-21T04:18:11.157Z,21.80
2019-02-21T04:20:38.437Z,25.27
2019-02-21T04:23:05.740Z,22.70
2019-02-21T04:25:33.697Z,24.87
2019-02-21T04:28:01.342Z,23.23
2019-02-21T04:30:28.645Z,22.23
2019-02-21T04:32:55.962Z,23.50
2019-02-21T04:35:23.250Z,23.87
2019-02-21T04:37:50.996Z,23.27
2019-02-21T04:40:18.344Z,24.23
2019-02-21T04:42:45.660Z,21.93
2019-02-21T04:45:13.530Z,23.33
2019-02-21T04:47:40.834Z,21.47
2019-02-21T04:50:08.196Z,22.97
2019-02-21T04:52:35.590Z,22.53
2019-02-21T04:55:03.059Z,24.40
2019-02-21T04:57:30.718Z,24.00
2019-02-21T04:59:58.006Z,23.23
2019-02-21T05:02:28.955Z,23.90
2019-02-21T05:04:54.525Z,24.30
2019-02-21T05:07:21.982Z,23.90
2019-02-21T05:09:57.368Z,27.60
2019-02-21T05:12:18.524Z,24.03
2019-02-21T05:14:46.166Z,23.40
2019-02-21T05:17:14.020Z,24.73
2019-02-21T05:19:41.664Z,26.00
2019-02-21T05:22:09.087Z,25.33
2019-02-21T05:24:36.716Z,22.77
2019-02-21T05:27:29.804Z,24.20
2019-02-21T05:29:57.093Z,23.27
2019-02-21T05:32:43.930Z,27.80
2019-02-21T05:35:32.993Z,23.97
2019-02-21T05:38:35.012Z,24.47
2019-02-21T05:41:31.153Z,22.57
2019-02-21T05:44:21.090Z,25.87
2019-02-21T05:47:15.300Z,24.37
2019-02-21T05:50:00.988Z,22.80
2019-02-21T05:52:57.222Z,25.00
2019-02-21T05:55:38.781Z,23.37
2019-02-21T05:58:12.722Z,23.80
2019-02-21T06:00:58.877Z,26.07
2019-02-21T06:04:03.686Z,26.17
2019-02-21T06:06:53.636Z,24.57
2019-02-21T06:09:36.121Z,25.63
2019-02-21T06:12:11.004Z,26.30
2019-02-21T06:14:43.241Z,27.50
2019-02-21T06:17:36.554Z,25.57
2019-02-21T06:20:21.977Z,24.70
2019-02-21T06:23:07.967Z,26.20
2019-02-21T06:25:53.217Z,27.97
2019-02-21T06:28:28.891Z,27.03
2019-02-21T06:31:02.519Z,25.03
2019-02-21T06:33:30.254Z,23.57
2019-02-21T06:35:57.931Z,26.73
2019-02-21T06:38:25.366Z,25.27
2019-02-21T06:40:52.690Z,28.20
2019-02-21T06:43:20.058Z,26.57
2019-02-21T06:45:47.814Z,26.60
2019-02-21T06:48:15.545Z,24.77
2019-02-21T06:50:42.900Z,27.53
2019-02-21T06:53:10.363Z,24.00
2019-02-21T06:55:38.176Z,26.40
2019-02-21T06:58:05.543Z,27.93
2019-02-21T07:00:32.854Z,28.00
2019-02-21T07:03:00.736Z,25.07
2019-02-21T07:05:28.044Z,24.63
2019-02-21T07:07:55.959Z,27.23
2019-02-21T07:10:23.364Z,24.77
2019-02-21T07:12:51.560Z,24.77
2019-02-21T07:15:19.039Z,24.40
2019-02-21T07:17:49.389Z,23.80
2019-02-21T07:20:15.600Z,23.63
2019-02-21T07:22:43.732Z,24.13
2019-02-21T07:25:24.914Z,27.47
2019-02-21T07:27:52.657Z,26.33
2019-02-21T07:30:23.013Z,25.03
2019-02-21T07:32:49.275Z,24.93
2019-02-21T07:35:17.290Z,24.67
2019-02-21T07:37:44.937Z,26.57
2019-02-21T07:40:19.768Z,22.83
2019-02-21T07:42:41.879Z,26.60
2019-02-21T07:45:09.797Z,24.03
2019-02-21T07:47:37.272Z,23.63
2019-02-21T07:50:05.070Z,25.47
2019-02-21T07:52:32.621Z,25.20
2019-02-21T07:55:02.112Z,26.80
2019-02-21T07:57:29.358Z,26.20
2019-02-21T08:00:00.209Z,26.93
2019-02-21T08:02:27.785Z,27.27
2019-02-21T08:04:55.254Z,33.70
2019-02-21T08:07:23.143Z,26.10
2019-02-21T08:09:51.247Z,24.50
2019-02-21T08:12:19.022Z,22.90
2019-02-21T08:14:46.876Z,24.13
2019-02-21T08:17:16.214Z,27.73
2019-02-21T08:19:43.730Z,25.47
2019-02-21T08:22:11.267Z,22.83
2019-02-21T08:24:38.714Z,23.60
2019-02-21T08:27:06.828Z,24.97
2019-02-21T08:29:34.199Z,23.53
2019-02-21T08:32:01.644Z,23.77
2019-02-21T08:34:33.105Z,26.53
2019-02-21T08:37:00.497Z,26.70
2019-02-21T08:39:27.969Z,27.50
2019-02-21T08:41:55.400Z,24.70
2019-02-21T08:44:23.008Z,27.17
2019-02-21T08:46:53.433Z,24.37
2019-02-21T08:49:20.132Z,26.63
2019-02-21T08:51:47.830Z,27.03
2019-02-21T08:54:16.209Z,25.67
2019-02-21T08:56:44.050Z,24.97
2019-02-21T08:59:11.616Z,29.03
2019-02-21T09:01:39.024Z,27.93
2019-02-21T09:04:10.461Z,25.23
2019-02-21T09:06:35.920Z,27.00
2019-02-21T09:09:04.873Z,26.07
2019-02-21T09:11:32.216Z,27.63
2019-02-21T09:13:59.844Z,24.87
2019-02-21T09:16:27.636Z,28.50
2019-02-21T09:18:55.504Z,27.20
2019-02-21T09:21:23.426Z,28.33
2019-02-21T09:23:50.881Z,22.77
2019-02-21T09:26:21.455Z,27.50
2019-02-21T09:28:48.230Z,25.30
2019-02-21T09:31:16.005Z,24.30
2019-02-21T09:33:44.014Z,27.90
2019-02-21T09:36:12.631Z,23.67
2019-02-21T09:38:40.809Z,24.50
2019-02-21T09:41:09.678Z,28.87
2019-02-21T09:43:37.787Z,22.63
2019-02-21T09:46:05.960Z,21.30
2019-02-21T09:48:34.235Z,22.03
2019-02-21T09:51:02.633Z,20.63
2019-02-21T09:53:30.302Z,22.80
2019-02-21T09:55:58.328Z,21.33
2019-02-21T09:58:25.928Z,23.57
2019-02-21T10:00:53.898Z,22.07
2019-02-21T10:03:21.745Z,18.97
2019-02-21T10:05:49.947Z,19.20
2019-02-21T10:08:17.622Z,21.47
2019-02-21T10:10:45.638Z,19.23
2019-02-21T10:13:13.537Z,18.73
2019-02-21T10:15:41.375Z,19.23
2019-02-21T10:18:09.222Z,19.30
2019-02-21T10:20:42.888Z,16.87
2019-02-21T10:23:10.905Z,18.37
2019-02-21T10:25:38.976Z,16.67
2019-02-21T10:28:06.733Z,16.40
2019-02-21T10:30:36.391Z,16.47
2019-02-21T10:33:04.038Z,18.33
2019-02-21T10:35:32.073Z,16.03
2019-02-21T10:38:00.393Z,16.53
2019-02-21T10:40:27.878Z,18.07
2019-02-21T10:42:55.872Z,17.07
2019-02-21T10:45:23.865Z,17.37
2019-02-21T10:47:51.463Z,14.93
2019-02-21T10:50:19.761Z,13.80
2019-02-21T10:52:47.595Z,15.83
2019-02-21T10:55:16.277Z,12.63
2019-02-21T10:57:45.537Z,17.53
2019-02-21T11:00:19.436Z,14.40
2019-02-21T11:02:47.438Z,12.83
2019-02-21T11:05:15.800Z,15.63
2019-02-21T11:07:44.369Z,14.67
2019-02-21T11:10:13.073Z,16.50
2019-02-21T11:12:41.044Z,15.63
2019-02-21T11:15:11.161Z,14.10
2019-02-21T11:17:38.855Z,14.77
2019-02-21T11:20:09.773Z,15.23
2019-02-21T11:22:37.417Z,18.07
2019-02-21T11:25:05.446Z,15.33
2019-02-21T11:27:33.364Z,15.03
2019-02-21T11:30:01.342Z,16.60
2019-02-21T11:32:28.759Z,16.80
2019-02-21T11:35:05.851Z,17.70
2019-02-21T11:37:25.692Z,19.67
2019-02-21T11:39:53.174Z,18.47
2019-02-21T11:42:20.778Z,17.40
2019-02-21T11:44:50.798Z,18.30
2019-02-21T11:47:18.528Z,16.57
2019-02-21T11:49:46.786Z,16.93
2019-02-21T11:52:14.801Z,20.93
2019-02-21T11:54:42.484Z,19.43
2019-02-21T11:57:09.960Z,20.43
2019-02-21T11:59:37.546Z,17.57
2019-02-21T12:02:05.659Z,17.27
2019-02-21T12:04:33.668Z,18.67
2019-02-21T12:07:01.210Z,23.73
2019-02-21T12:09:37.078Z,17.50
2019-02-21T12:12:04.904Z,17.70
2019-02-21T12:14:32.467Z,18.13
2019-02-21T12:17:00.029Z,17.73
2019-02-21T12:19:27.465Z,15.77
2019-02-21T12:21:59.173Z,18.77
2019-02-21T12:24:26.136Z,20.10
2019-02-21T12:26:54.174Z,18.63
2019-02-21T12:29:21.991Z,17.57
2019-02-21T12:31:49.659Z,17.83
2019-02-21T12:34:17.208Z,19.17
2019-02-21T12:36:45.413Z,18.73
2019-02-21T12:39:13.028Z,19.43
2019-02-21T12:41:41.615Z,18.93
2019-02-21T12:44:09.407Z,20.33
2019-02-21T12:46:37.460Z,22.87
2019-02-21T12:49:05.024Z,23.90
2019-02-21T12:51:32.669Z,19.80
2019-02-21T12:54:00.130Z,22.37
2019-02-21T12:56:27.986Z,22.10
2019-02-21T12:58:55.598Z,20.97
2019-02-21T13:01:23.485Z,19.80
2019-02-21T13:03:51.442Z,19.80
2019-02-21T13:06:21.672Z,22.23
2019-02-21T13:08:49.648Z,20.30
2019-02-21T13:11:19.300Z,24.03
2019-02-21T13:13:46.922Z,22.40
2019-02-21T13:16:14.704Z,22.17
2019-02-21T13:18:42.684Z,21.57
2019-02-21T13:21:10.260Z,22.23
2019-02-21T13:23:37.850Z,20.13
2019-02-21T13:26:06.039Z,25.97
2019-02-21T13:28:38.424Z,20.50
2019-02-21T13:31:06.022Z,21.77
2019-02-21T13:33:33.935Z,21.60
2019-02-21T13:36:01.986Z,25.53
2019-02-21T13:38:29.891Z,22.83
2019-02-21T13:40:57.948Z,22.37
2019-02-21T13:43:25.875Z,25.03
2019-02-21T13:45:53.471Z,22.83
2019-02-21T13:48:21.665Z,22.07
2019-02-21T13:50:49.664Z,21.53
2019-02-21T13:53:17.368Z,23.07
2019-02-21T13:55:44.908Z,21.87
2019-02-21T13:58:12.770Z,21.93
2019-02-21T14:00:40.954Z,25.53
2019-02-21T14:03:08.874Z,24.30
2019-02-21T14:05:36.462Z,22.23
2019-02-21T14:08:04.547Z,20.80
2019-02-21T14:10:32.801Z,22.20
2019-02-21T14:13:00.377Z,20.73
2019-02-21T14:15:28.301Z,23.63
2019-02-21T14:17:56.460Z,22.20
2019-02-21T14:20:24.241Z,21.80
2019-02-21T14:22:56.678Z,21.03
2019-02-21T14:25:24.762Z,20.37
2019-02-21T14:27:52.809Z,22.17
2019-02-21T14:30:20.625Z,23.30
2019-02-21T14:32:48.373Z,20.07
2019-02-21T14:35:16.391Z,25.43
2019-02-21T14:37:47.484Z,20.13
2019-02-21T14:40:15.083Z,19.43
2019-02-21T14:42:42.613Z,20.20
2019-02-21T14:45:12.819Z,20.73
2019-02-21T14:47:40.344Z,19.33
2019-02-21T14:50:09.053Z,19.70
2019-02-21T14:52:37.032Z,19.30
2019-02-21T14:55:05.396Z,19.60
2019-02-21T14:57:40.457Z,21.53
2019-02-21T15:00:02.792Z,19.70
2019-02-21T15:02:30.873Z,17.67
2019-02-21T15:04:58.521Z,19.57
2019-02-21T15:07:26.523Z,20.67
2019-02-21T15:09:54.137Z,19.17
2019-02-21T15:12:21.808Z,17.30
2019-02-21T15:14:49.444Z,21.20
2019-02-21T15:17:18.572Z,19.13
2019-02-21T15:19:46.702Z,21.33
2019-02-21T15:22:15.036Z,19.73
2019-02-21T15:24:43.253Z,21.17
2019-02-21T15:27:10.978Z,19.33
2019-02-21T15:29:41.475Z,20.23
2019-02-21T15:32:11.557Z,22.53
2019-02-21T15:34:38.252Z,22.37
2019-02-21T15:37:05.773Z,20.90
2019-02-21T15:39:35.436Z,24.57
2019-02-21T15:42:04.677Z,22.93
2019-02-21T15:44:32.972Z,22.70
2019-02-21T15:47:00.822Z,21.57
2019-02-21T15:49:29.143Z,28.97
2019-02-21T15:51:57.402Z,23.83
2019-02-21T15:54:25.323Z,22.43
2019-02-21T15:56:53.937Z,22.57
2019-02-21T15:59:21.975Z,23.70
2019-02-21T16:01:49.712Z,24.17
2019-02-21T16:04:17.689Z,27.23
2019-02-21T16:06:51.063Z,26.80
2019-02-21T16:09:16.785Z,23.80
2019-02-21T16:11:46.096Z,23.87
2019-02-21T16:14:13.668Z,25.70
2019-02-21T16:16:44.564Z,23.87
2019-02-21T16:19:12.151Z,23.77
2019-02-21T16:21:40.341Z,24.20
2019-02-21T16:24:08.017Z,27.50
2019-02-21T16:26:35.566Z,23.90
2019-02-21T16:29:03.589Z,24.87
2019-02-21T16:31:32.343Z,27.10
2019-02-21T16:33:59.998Z,27.97
2019-02-21T16:36:27.710Z,28.00
2019-02-21T16:38:56.007Z,25.80
2019-02-21T16:41:24.209Z,28.67
2019-02-21T16:43:52.129Z,25.53
2019-02-21T16:46:21.062Z,26.67
2019-02-21T16:48:48.821Z,28.97
2019-02-21T16:51:16.455Z,29.33
2019-02-21T16:53:45.592Z,31.57
2019-02-21T16:56:13.561Z,34.97
2019-02-21T16:58:42.855Z,27.27
2019-02-21T17:01:11.135Z,29.17
2019-02-21T17:03:38.889Z,27.93
2019-02-21T17:06:07.049Z,29.03
2019-02-21T17:08:35.353Z,28.77
2019-02-21T17:11:03.321Z,28.73
2019-02-21T17:13:31.429Z,29.87
2019-02-21T17:16:01.459Z,30.00
2019-02-21T17:18:28.969Z,27.57
2019-02-21T17:20:57.460Z,26.93
2019-02-21T17:23:25.426Z,28.27
2019-02-21T17:25:53.378Z,28.47
2019-02-21T17:28:20.978Z,28.43
2019-02-21T17:30:48.819Z,30.20
2019-02-21T17:33:17.416Z,30.40
2019-02-21T17:35:45.165Z,28.13
2019-02-21T17:38:14.455Z,30.60
2019-02-21T17:40:42.670Z,28.50
2019-02-21T17:43:10.651Z,29.30
2019-02-21T17:45:41.476Z,27.70
2019-02-21T17:48:11.113Z,27.60
2019-02-21T17:50:39.037Z,27.47
2019-02-21T17:53:07.192Z,26.70
2019-02-21T17:55:34.964Z,30.90
2019-02-21T17:58:02.553Z,28.47
2019-02-21T18:00:34.488Z,27.63
2019-02-21T18:03:03.443Z,29.43
2019-02-21T18:05:31.164Z,28.83
2019-02-21T18:07:58.841Z,27.47
2019-02-21T18:10:29.774Z,27.13
2019-02-21T18:12:57.933Z,27.73
2019-02-21T18:15:25.614Z,29.33
2019-02-21T18:17:53.957Z,32.10
2019-02-21T18:20:22.248Z,28.80
2019-02-21T18:22:50.418Z,32.37
2019-02-21T18:25:24.710Z,30.93
2019-02-21T18:27:52.747Z,30.57
2019-02-21T18:30:20.509Z,29.50
2019-02-21T18:32:48.530Z,26.60
2019-02-21T18:35:20.900Z,27.40
2019-02-21T18:37:48.669Z,27.67
2019-02-21T18:40:18.613Z,29.30
2019-02-21T18:42:49.983Z,25.30
2019-02-21T18:45:17.764Z,28.57
2019-02-21T18:47:45.481Z,27.43
2019-02-21T18:50:14.195Z,27.20
2019-02-21T18:52:42.968Z,27.00
2019-02-21T18:55:11.011Z,27.03
2019-02-21T18:57:39.303Z,29.20
2019-02-21T19:00:09.487Z,30.87
2019-02-21T19:02:38.348Z,26.87
2019-02-21T19:05:08.488Z,30.13
2019-02-21T19:07:36.686Z,24.33
2019-02-21T19:10:05.667Z,30.17
2019-02-21T19:12:33.922Z,25.87
2019-02-21T19:15:07.662Z,29.67
2019-02-21T19:17:38.097Z,27.57
2019-02-21T19:20:10.810Z,27.23
2019-02-21T19:22:40.644Z,25.47
2019-02-21T19:25:10.770Z,25.90
2019-02-21T19:27:40.272Z,25.77
2019-02-21T19:30:14.358Z,24.00
2019-02-21T19:32:43.324Z,25.00
2019-02-21T19:35:13.320Z,26.63
2019-02-21T19:37:41.325Z,25.77
2019-02-21T19:40:12.072Z,24.53
2019-02-21T19:42:44.461Z,28.47
2019-02-21T19:45:14.929Z,26.20
2019-02-21T19:47:43.205Z,25.07
2019-02-21T19:50:11.781Z,25.53
2019-02-21T19:52:40.385Z,27.17
2019-02-21T19:55:08.624Z,25.40
2019-02-21T19:57:36.619Z,28.03
2019-02-21T20:00:09.740Z,26.70
2019-02-21T20:02:38.939Z,28.50
2019-02-21T20:05:07.528Z,24.57
2019-02-21T20:07:35.400Z,28.07
2019-02-21T20:10:03.565Z,28.10
2019-02-21T20:12:32.040Z,24.53
2019-02-21T20:14:59.825Z,28.13
2019-02-21T20:17:30.623Z,26.63
2019-02-21T20:20:00.327Z,25.87
2019-02-21T20:22:30.368Z,27.17
2019-02-21T20:24:59.495Z,27.70
2019-02-21T20:27:27.700Z,27.53
2019-02-21T20:29:55.589Z,23.67
2019-02-21T20:32:23.709Z,25.53
2019-02-21T20:34:51.458Z,29.90
2019-02-21T20:37:20.725Z,25.67
2019-02-21T20:40:12.204Z,28.93
2019-02-21T20:43:00.228Z,27.60
2019-02-21T20:45:38.395Z,30.20
2019-02-21T20:48:12.242Z,28.30
2019-02-21T20:50:56.139Z,27.30
2019-02-21T20:53:37.369Z,31.40
2019-02-21T20:56:19.068Z,26.13
2019-02-21T20:59:22.157Z,27.10
2019-02-21T21:01:59.322Z,29.97
2019-02-21T21:04:32.949Z,25.70
2019-02-21T21:07:24.606Z,25.53
2019-02-21T21:10:02.466Z,26.43
2019-02-21T21:12:46.009Z,24.33
2019-02-21T21:15:18.592Z,28.67
2019-02-21T21:18:10.824Z,28.57
2019-02-21T21:20:36.233Z,27.37
2019-02-21T21:23:20.734Z,29.60
2019-02-21T21:25:54.701Z,27.87
2019-02-21T21:28:28.342Z,28.17
2019-02-21T21:31:10.645Z,26.47
2019-02-21T21:33:45.931Z,28.47
2019-02-21T21:36:37.147Z,27.73
2019-02-21T21:39:09.127Z,25.53
2019-02-21T21:41:43.649Z,26.33
2019-02-21T21:44:17.556Z,29.23
2019-02-21T21:46:55.168Z,28.10
2019-02-21T21:49:44.834Z,26.77
2019-02-21T21:52:21.130Z,30.77
2019-02-21T21:54:55.513Z,25.93
2019-02-21T21:57:35.447Z,27.57
2019-02-21T22:00:17.767Z,26.60
2019-02-21T22:02:50.259Z,25.40
2019-02-21T22:05:30.298Z,26.53
2019-02-21T22:08:11.169Z,26.10
2019-02-21T22:10:47.129Z,25.57
2019-02-21T22:13:26.805Z,26.20
2019-02-21T22:15:58.627Z,27.20
2019-02-21T22:18:31.443Z,32.07
2019-02-21T22:21:06.930Z,26.93
2019-02-21T22:23:46.908Z,29.00
2019-02-21T22:26:24.946Z,29.67
2019-02-21T22:28:58.001Z,27.10
2019-02-21T22:31:33.733Z,29.73
2019-02-21T22:34:03.135Z,29.70
2019-02-21T22:36:36.769Z,31.90
2019-02-21T22:39:16.796Z,29.70
2019-02-21T22:41:52.050Z,29.67
2019-02-21T22:44:23.207Z,33.70
2019-02-21T22:46:55.157Z,31.37
2019-02-21T22:49:22.725Z,32.50
2019-02-21T22:51:50.576Z,33.17
2019-02-21T22:54:19.013Z,41.93
2019-02-21T22:56:46.818Z,44.37
2019-02-21T22:59:14.730Z,38.53
2019-02-21T23:01:44.437Z,32.07
2019-02-21T23:04:22.242Z,33.70
2019-02-21T23:07:29.980Z,36.13
2019-02-21T23:09:57.482Z,36.30
2019-02-21T23:12:24.922Z,35.60
2019-02-21T23:14:52.291Z,35.70
2019-02-21T23:17:20.100Z,36.47
2019-02-21T23:19:47.601Z,35.87
2019-02-21T23:22:15.415Z,37.83
2019-02-21T23:24:42.859Z,39.20
2019-02-21T23:27:10.711Z,43.23
2019-02-21T23:29:38.504Z,40.03
2019-02-21T23:32:05.881Z,41.23
2019-02-21T23:34:38.153Z,43.30
2019-02-21T23:37:05.990Z,39.37
2019-02-21T23:39:38.321Z,44.40
2019-02-21T23:42:02.858Z,43.00
2019-02-21T23:44:31.053Z,41.57
2019-02-21T23:46:58.705Z,44.83
2019-02-21T23:49:26.223Z,47.07
2019-02-21T23:51:53.839Z,43.57
2019-02-21T23:54:21.355Z,47.03
2019-02-21T23:56:49.221Z,46.10
2019-02-21T23:59:17.663Z,50.33
